sensor_id;sensor_type;location;lat;lon;timestamp;P1;durP1;ratioP1;P2;durP2;ratioP2
74459;SDS011;62902;48.854;9.292;2023-04-16T00:01:24;82.07;;;54.72;;
74459;SDS011;62902;48.854;9.292;2023-04-16T00:03:51;277.73;;;133.45;;
74459;SDS011;62902;48.854;9.292;2023-04-16T00:06:18;164.80;;;85.10;;
74459;SDS011;62902;48.854;9.292;2023-04-16T00:08:44;147.68;;;79.28;;
74459;SDS011;62902;48.854;9.292;2023-04-16T00:11:11;97.97;;;60.58;;
74459;SDS011;62902;48.854;9.292;2023-04-16T00:13:38;99.30;;;62.13;;
74459;SDS011;62902;48.854;9.292;2023-04-16T00:16:04;86.97;;;57.50;;
74459;SDS011;62902;48.854;9.292;2023-04-16T00:18:31;107.32;;;64.38;;
74459;SDS011;62902;48.854;9.292;2023-04-16T00:20:57;192.77;;;94.90;;
74459;SDS011;62902;48.854;9.292;2023-04-16T00:23:24;207.32;;;98.85;;
74459;SDS011;62902;48.854;9.292;2023-04-16T00:25:51;301.17;;;142.93;;
74459;SDS011;62902;48.854;9.292;2023-04-16T00:28:19;364.35;;;168.77;;
74459;SDS011;62902;48.854;9.292;2023-04-16T00:30:45;455.38;;;221.93;;
74459;SDS011;62902;48.854;9.292;2023-04-16T00:33:12;491.80;;;244.25;;
74459;SDS011;62902;48.854;9.292;2023-04-16T00:35:38;377.98;;;181.38;;
74459;SDS011;62902;48.854;9.292;2023-04-16T00:38:05;286.55;;;139.00;;
74459;SDS011;62902;48.854;9.292;2023-04-16T00:40:32;402.75;;;196.15;;
74459;SDS011;62902;48.854;9.292;2023-04-16T00:42:58;430.33;;;214.00;;
74459;SDS011;62902;48.854;9.292;2023-04-16T00:45:25;89.05;;;55.33;;
74459;SDS011;62902;48.854;9.292;2023-04-16T00:47:51;221.15;;;110.25;;
74459;SDS011;62902;48.854;9.292;2023-04-16T00:50:18;79.97;;;44.20;;
74459;SDS011;62902;48.854;9.292;2023-04-16T00:52:48;63.25;;;37.20;;
74459;SDS011;62902;48.854;9.292;2023-04-16T00:55:14;192.57;;;102.07;;
74459;SDS011;62902;48.854;9.292;2023-04-16T00:57:44;45.42;;;25.90;;
74459;SDS011;62902;48.854;9.292;2023-04-16T01:00:11;29.10;;;11.88;;
74459;SDS011;62902;48.854;9.292;2023-04-16T01:02:38;38.17;;;25.50;;
74459;SDS011;62902;48.854;9.292;2023-04-16T01:05:05;54.85;;;37.60;;
74459;SDS011;62902;48.854;9.292;2023-04-16T01:07:31;30.88;;;14.10;;
74459;SDS011;62902;48.854;9.292;2023-04-16T01:09:58;29.27;;;16.42;;
74459;SDS011;62902;48.854;9.292;2023-04-16T01:12:24;33.80;;;13.38;;
74459;SDS011;62902;48.854;9.292;2023-04-16T01:14:51;31.13;;;12.85;;
74459;SDS011;62902;48.854;9.292;2023-04-16T01:17:18;27.75;;;11.77;;
74459;SDS011;62902;48.854;9.292;2023-04-16T01:19:44;27.52;;;11.63;;
74459;SDS011;62902;48.854;9.292;2023-04-16T01:22:11;30.90;;;12.05;;
74459;SDS011;62902;48.854;9.292;2023-04-16T01:24:38;24.25;;;9.93;;
74459;SDS011;62902;48.854;9.292;2023-04-16T01:27:08;28.85;;;11.68;;
74459;SDS011;62902;48.854;9.292;2023-04-16T01:29:35;55.20;;;39.58;;
74459;SDS011;62902;48.854;9.292;2023-04-16T01:32:01;33.67;;;20.92;;
74459;SDS011;62902;48.854;9.292;2023-04-16T01:34:33;26.23;;;12.45;;
74459;SDS011;62902;48.854;9.292;2023-04-16T01:37:02;60.67;;;42.83;;
74459;SDS011;62902;48.854;9.292;2023-04-16T01:39:29;27.95;;;13.50;;
74459;SDS011;62902;48.854;9.292;2023-04-16T01:41:56;31.98;;;13.63;;
74459;SDS011;62902;48.854;9.292;2023-04-16T01:44:23;30.92;;;16.15;;
74459;SDS011;62902;48.854;9.292;2023-04-16T01:46:50;70.53;;;44.25;;
74459;SDS011;62902;48.854;9.292;2023-04-16T01:49:17;33.40;;;16.70;;
74459;SDS011;62902;48.854;9.292;2023-04-16T01:51:43;39.60;;;29.80;;
74459;SDS011;62902;48.854;9.292;2023-04-16T01:54:10;48.35;;;32.25;;
74459;SDS011;62902;48.854;9.292;2023-04-16T01:56:38;31.25;;;12.82;;
74459;SDS011;62902;48.854;9.292;2023-04-16T01:59:04;60.65;;;45.65;;
74459;SDS011;62902;48.854;9.292;2023-04-16T02:01:36;60.28;;;42.42;;
74459;SDS011;62902;48.854;9.292;2023-04-16T02:04:03;47.75;;;35.35;;
74459;SDS011;62902;48.854;9.292;2023-04-16T02:06:30;34.85;;;23.77;;
74459;SDS011;62902;48.854;9.292;2023-04-16T02:08:57;28.65;;;14.55;;
74459;SDS011;62902;48.854;9.292;2023-04-16T02:11:24;30.02;;;14.32;;
74459;SDS011;62902;48.854;9.292;2023-04-16T02:13:51;32.85;;;20.02;;
74459;SDS011;62902;48.854;9.292;2023-04-16T02:16:18;30.45;;;13.63;;
74459;SDS011;62902;48.854;9.292;2023-04-16T02:18:49;28.33;;;11.88;;
74459;SDS011;62902;48.854;9.292;2023-04-16T02:21:17;23.17;;;10.85;;
74459;SDS011;62902;48.854;9.292;2023-04-16T02:23:45;24.75;;;9.35;;
74459;SDS011;62902;48.854;9.292;2023-04-16T02:26:13;27.90;;;10.77;;
74459;SDS011;62902;48.854;9.292;2023-04-16T02:28:40;30.27;;;12.02;;
74459;SDS011;62902;48.854;9.292;2023-04-16T02:31:08;27.63;;;10.60;;
74459;SDS011;62902;48.854;9.292;2023-04-16T02:33:40;28.25;;;10.88;;
74459;SDS011;62902;48.854;9.292;2023-04-16T02:36:06;28.35;;;11.50;;
74459;SDS011;62902;48.854;9.292;2023-04-16T02:38:33;32.90;;;13.00;;
74459;SDS011;62902;48.854;9.292;2023-04-16T02:41:02;35.67;;;15.88;;
74459;SDS011;62902;48.854;9.292;2023-04-16T02:43:29;25.65;;;10.18;;
74459;SDS011;62902;48.854;9.292;2023-04-16T02:45:55;27.42;;;11.68;;
74459;SDS011;62902;48.854;9.292;2023-04-16T02:48:24;25.13;;;10.15;;
74459;SDS011;62902;48.854;9.292;2023-04-16T02:50:50;32.03;;;11.73;;
74459;SDS011;62902;48.854;9.292;2023-04-16T02:53:17;30.63;;;10.77;;
74459;SDS011;62902;48.854;9.292;2023-04-16T02:55:50;27.40;;;10.60;;
74459;SDS011;62902;48.854;9.292;2023-04-16T02:58:21;29.23;;;10.80;;
74459;SDS011;62902;48.854;9.292;2023-04-16T03:00:49;33.65;;;11.25;;
74459;SDS011;62902;48.854;9.292;2023-04-16T03:03:16;33.83;;;12.02;;
74459;SDS011;62902;48.854;9.292;2023-04-16T03:05:42;30.25;;;11.68;;
74459;SDS011;62902;48.854;9.292;2023-04-16T03:08:09;31.67;;;14.63;;
74459;SDS011;62902;48.854;9.292;2023-04-16T03:10:36;33.42;;;18.60;;
74459;SDS011;62902;48.854;9.292;2023-04-16T03:13:02;44.20;;;23.63;;
74459;SDS011;62902;48.854;9.292;2023-04-16T03:15:29;58.60;;;43.75;;
74459;SDS011;62902;48.854;9.292;2023-04-16T03:17:57;76.32;;;52.35;;
74459;SDS011;62902;48.854;9.292;2023-04-16T03:20:23;103.32;;;65.07;;
74459;SDS011;62902;48.854;9.292;2023-04-16T03:22:51;80.55;;;52.83;;
74459;SDS011;62902;48.854;9.292;2023-04-16T03:25:17;75.00;;;53.17;;
74459;SDS011;62902;48.854;9.292;2023-04-16T03:27:44;57.95;;;43.95;;
74459;SDS011;62902;48.854;9.292;2023-04-16T03:30:12;52.20;;;40.42;;
74459;SDS011;62902;48.854;9.292;2023-04-16T03:32:39;111.13;;;65.28;;
74459;SDS011;62902;48.854;9.292;2023-04-16T03:35:07;131.80;;;74.50;;
74459;SDS011;62902;48.854;9.292;2023-04-16T03:37:54;154.90;;;81.95;;
74459;SDS011;62902;48.854;9.292;2023-04-16T03:40:21;141.65;;;78.30;;
74459;SDS011;62902;48.854;9.292;2023-04-16T03:42:48;179.48;;;90.40;;
74459;SDS011;62902;48.854;9.292;2023-04-16T03:45:14;159.68;;;85.18;;
74459;SDS011;62902;48.854;9.292;2023-04-16T03:47:42;166.38;;;86.88;;
74459;SDS011;62902;48.854;9.292;2023-04-16T03:50:09;94.68;;;59.83;;
74459;SDS011;62902;48.854;9.292;2023-04-16T03:52:37;58.45;;;41.25;;
74459;SDS011;62902;48.854;9.292;2023-04-16T03:55:03;52.85;;;39.40;;
74459;SDS011;62902;48.854;9.292;2023-04-16T03:57:30;260.02;;;128.07;;
74459;SDS011;62902;48.854;9.292;2023-04-16T04:00:03;371.92;;;186.82;;
74459;SDS011;62902;48.854;9.292;2023-04-16T04:02:39;354.17;;;182.80;;
74459;SDS011;62902;48.854;9.292;2023-04-16T04:05:12;173.02;;;93.82;;
74459;SDS011;62902;48.854;9.292;2023-04-16T04:07:39;197.32;;;105.07;;
74459;SDS011;62902;48.854;9.292;2023-04-16T04:10:06;94.15;;;55.00;;
74459;SDS011;62902;48.854;9.292;2023-04-16T04:12:37;378.17;;;192.93;;
74459;SDS011;62902;48.854;9.292;2023-04-16T04:15:04;425.35;;;228.90;;
74459;SDS011;62902;48.854;9.292;2023-04-16T04:17:31;262.95;;;138.82;;
74459;SDS011;62902;48.854;9.292;2023-04-16T04:19:57;330.63;;;178.02;;
74459;SDS011;62902;48.854;9.292;2023-04-16T04:22:28;207.13;;;112.43;;
74459;SDS011;62902;48.854;9.292;2023-04-16T04:24:55;222.40;;;116.38;;
74459;SDS011;62902;48.854;9.292;2023-04-16T04:27:21;315.17;;;169.68;;
74459;SDS011;62902;48.854;9.292;2023-04-16T04:29:48;44.85;;;16.98;;
74459;SDS011;62902;48.854;9.292;2023-04-16T04:32:14;32.78;;;12.05;;
74459;SDS011;62902;48.854;9.292;2023-04-16T04:34:42;39.63;;;11.95;;
74459;SDS011;62902;48.854;9.292;2023-04-16T04:37:09;87.65;;;52.33;;
74459;SDS011;62902;48.854;9.292;2023-04-16T04:39:36;97.68;;;59.30;;
74459;SDS011;62902;48.854;9.292;2023-04-16T04:42:03;48.33;;;36.00;;
74459;SDS011;62902;48.854;9.292;2023-04-16T04:44:30;91.70;;;58.15;;
74459;SDS011;62902;48.854;9.292;2023-04-16T04:46:56;136.32;;;78.78;;
74459;SDS011;62902;48.854;9.292;2023-04-16T04:49:23;268.40;;;139.43;;
74459;SDS011;62902;48.854;9.292;2023-04-16T04:51:51;187.30;;;99.47;;
74459;SDS011;62902;48.854;9.292;2023-04-16T04:54:19;83.80;;;56.55;;
74459;SDS011;62902;48.854;9.292;2023-04-16T04:56:45;69.53;;;42.28;;
74459;SDS011;62902;48.854;9.292;2023-04-16T04:59:13;41.95;;;21.13;;
74459;SDS011;62902;48.854;9.292;2023-04-16T05:01:40;31.45;;;18.00;;
74459;SDS011;62902;48.854;9.292;2023-04-16T05:04:06;31.33;;;11.63;;
74459;SDS011;62902;48.854;9.292;2023-04-16T05:06:33;33.20;;;11.95;;
74459;SDS011;62902;48.854;9.292;2023-04-16T05:09:00;37.83;;;12.77;;
74459;SDS011;62902;48.854;9.292;2023-04-16T05:11:26;39.15;;;14.07;;
74459;SDS011;62902;48.854;9.292;2023-04-16T05:13:53;47.67;;;14.77;;
74459;SDS011;62902;48.854;9.292;2023-04-16T05:16:19;37.00;;;12.10;;
74459;SDS011;62902;48.854;9.292;2023-04-16T05:18:46;43.13;;;13.32;;
74459;SDS011;62902;48.854;9.292;2023-04-16T05:21:12;45.25;;;13.55;;
74459;SDS011;62902;48.854;9.292;2023-04-16T05:23:39;46.78;;;15.57;;
74459;SDS011;62902;48.854;9.292;2023-04-16T05:26:05;48.70;;;13.48;;
74459;SDS011;62902;48.854;9.292;2023-04-16T05:28:32;46.17;;;15.02;;
74459;SDS011;62902;48.854;9.292;2023-04-16T05:30:59;42.85;;;14.27;;
74459;SDS011;62902;48.854;9.292;2023-04-16T05:33:26;43.13;;;14.95;;
74459;SDS011;62902;48.854;9.292;2023-04-16T05:35:52;47.17;;;15.65;;
74459;SDS011;62902;48.854;9.292;2023-04-16T05:38:19;51.00;;;14.70;;
74459;SDS011;62902;48.854;9.292;2023-04-16T05:40:45;51.60;;;15.25;;
74459;SDS011;62902;48.854;9.292;2023-04-16T05:43:12;47.90;;;14.38;;
74459;SDS011;62902;48.854;9.292;2023-04-16T05:45:39;51.53;;;16.20;;
74459;SDS011;62902;48.854;9.292;2023-04-16T05:48:07;47.88;;;15.63;;
74459;SDS011;62902;48.854;9.292;2023-04-16T05:50:34;46.05;;;15.07;;
74459;SDS011;62902;48.854;9.292;2023-04-16T05:53:03;45.20;;;18.25;;
74459;SDS011;62902;48.854;9.292;2023-04-16T05:55:31;77.18;;;37.75;;
74459;SDS011;62902;48.854;9.292;2023-04-16T05:57:58;66.57;;;33.65;;
74459;SDS011;62902;48.854;9.292;2023-04-16T06:00:24;56.38;;;18.92;;
74459;SDS011;62902;48.854;9.292;2023-04-16T06:02:51;213.82;;;97.22;;
74459;SDS011;62902;48.854;9.292;2023-04-16T06:05:18;141.45;;;63.83;;
74459;SDS011;62902;48.854;9.292;2023-04-16T06:07:44;353.95;;;185.48;;
74459;SDS011;62902;48.854;9.292;2023-04-16T06:10:11;411.48;;;221.23;;
74459;SDS011;62902;48.854;9.292;2023-04-16T06:12:37;197.70;;;98.75;;
74459;SDS011;62902;48.854;9.292;2023-04-16T06:15:04;151.48;;;68.15;;
74459;SDS011;62902;48.854;9.292;2023-04-16T06:17:31;323.83;;;163.27;;
74459;SDS011;62902;48.854;9.292;2023-04-16T06:19:58;151.80;;;67.88;;
74459;SDS011;62902;48.854;9.292;2023-04-16T06:22:24;227.88;;;118.45;;
74459;SDS011;62902;48.854;9.292;2023-04-16T06:24:51;130.73;;;57.83;;
74459;SDS011;62902;48.854;9.292;2023-04-16T06:27:18;69.75;;;23.70;;
74459;SDS011;62902;48.854;9.292;2023-04-16T06:29:45;55.33;;;17.70;;
74459;SDS011;62902;48.854;9.292;2023-04-16T06:32:13;59.53;;;18.00;;
74459;SDS011;62902;48.854;9.292;2023-04-16T06:34:40;202.05;;;93.25;;
74459;SDS011;62902;48.854;9.292;2023-04-16T06:37:06;66.40;;;21.85;;
74459;SDS011;62902;48.854;9.292;2023-04-16T06:39:35;57.28;;;20.75;;
74459;SDS011;62902;48.854;9.292;2023-04-16T06:42:02;61.70;;;19.42;;
74459;SDS011;62902;48.854;9.292;2023-04-16T06:44:29;55.88;;;20.83;;
74459;SDS011;62902;48.854;9.292;2023-04-16T06:46:56;63.33;;;17.95;;
74459;SDS011;62902;48.854;9.292;2023-04-16T06:49:22;55.10;;;16.70;;
74459;SDS011;62902;48.854;9.292;2023-04-16T06:51:49;59.30;;;18.33;;
74459;SDS011;62902;48.854;9.292;2023-04-16T06:54:16;60.80;;;18.08;;
74459;SDS011;62902;48.854;9.292;2023-04-16T06:56:43;55.35;;;18.38;;
74459;SDS011;62902;48.854;9.292;2023-04-16T06:59:09;51.60;;;17.02;;
74459;SDS011;62902;48.854;9.292;2023-04-16T07:01:36;68.22;;;21.52;;
74459;SDS011;62902;48.854;9.292;2023-04-16T07:04:03;244.80;;;120.68;;
74459;SDS011;62902;48.854;9.292;2023-04-16T07:06:29;134.65;;;50.03;;
74459;SDS011;62902;48.854;9.292;2023-04-16T07:08:57;267.40;;;102.55;;
74459;SDS011;62902;48.854;9.292;2023-04-16T07:11:23;168.02;;;84.38;;
74459;SDS011;62902;48.854;9.292;2023-04-16T07:13:51;69.63;;;20.88;;
74459;SDS011;62902;48.854;9.292;2023-04-16T07:16:18;51.88;;;17.23;;
74459;SDS011;62902;48.854;9.292;2023-04-16T07:18:46;198.60;;;97.65;;
74459;SDS011;62902;48.854;9.292;2023-04-16T07:21:12;247.13;;;122.35;;
74459;SDS011;62902;48.854;9.292;2023-04-16T07:23:39;266.42;;;137.98;;
74459;SDS011;62902;48.854;9.292;2023-04-16T07:26:05;342.48;;;175.52;;
74459;SDS011;62902;48.854;9.292;2023-04-16T07:28:32;246.77;;;126.43;;
74459;SDS011;62902;48.854;9.292;2023-04-16T07:30:59;50.40;;;15.95;;
74459;SDS011;62902;48.854;9.292;2023-04-16T07:33:25;52.28;;;16.40;;
74459;SDS011;62902;48.854;9.292;2023-04-16T07:35:52;159.35;;;81.47;;
74459;SDS011;62902;48.854;9.292;2023-04-16T07:38:19;115.28;;;56.38;;
74459;SDS011;62902;48.854;9.292;2023-04-16T07:40:45;78.28;;;39.88;;
74459;SDS011;62902;48.854;9.292;2023-04-16T07:43:12;113.75;;;56.33;;
74459;SDS011;62902;48.854;9.292;2023-04-16T07:45:40;48.15;;;16.60;;
74459;SDS011;62902;48.854;9.292;2023-04-16T07:48:07;53.92;;;17.48;;
74459;SDS011;62902;48.854;9.292;2023-04-16T07:50:34;65.05;;;23.25;;
74459;SDS011;62902;48.854;9.292;2023-04-16T07:53:02;59.85;;;25.52;;
74459;SDS011;62902;48.854;9.292;2023-04-16T07:55:28;43.70;;;16.25;;
74459;SDS011;62902;48.854;9.292;2023-04-16T07:57:55;50.42;;;14.68;;
74459;SDS011;62902;48.854;9.292;2023-04-16T08:00:22;52.47;;;18.10;;
74459;SDS011;62902;48.854;9.292;2023-04-16T08:02:49;48.00;;;16.35;;
74459;SDS011;62902;48.854;9.292;2023-04-16T08:05:16;52.67;;;18.38;;
74459;SDS011;62902;48.854;9.292;2023-04-16T08:07:43;44.78;;;15.65;;
74459;SDS011;62902;48.854;9.292;2023-04-16T08:10:09;47.58;;;16.05;;
74459;SDS011;62902;48.854;9.292;2023-04-16T08:12:36;47.38;;;15.65;;
74459;SDS011;62902;48.854;9.292;2023-04-16T08:15:03;49.75;;;17.77;;
74459;SDS011;62902;48.854;9.292;2023-04-16T08:17:30;42.88;;;15.02;;
74459;SDS011;62902;48.854;9.292;2023-04-16T08:19:59;49.65;;;16.13;;
74459;SDS011;62902;48.854;9.292;2023-04-16T08:22:26;55.47;;;18.30;;
74459;SDS011;62902;48.854;9.292;2023-04-16T08:24:53;44.25;;;15.60;;
74459;SDS011;62902;48.854;9.292;2023-04-16T08:27:20;46.22;;;15.77;;
74459;SDS011;62902;48.854;9.292;2023-04-16T08:29:46;46.60;;;17.02;;
74459;SDS011;62902;48.854;9.292;2023-04-16T08:32:13;47.75;;;16.17;;
74459;SDS011;62902;48.854;9.292;2023-04-16T08:34:40;42.53;;;15.23;;
74459;SDS011;62902;48.854;9.292;2023-04-16T08:37:07;36.42;;;14.32;;
74459;SDS011;62902;48.854;9.292;2023-04-16T08:39:33;38.85;;;14.60;;
74459;SDS011;62902;48.854;9.292;2023-04-16T08:42:01;44.25;;;15.98;;
74459;SDS011;62902;48.854;9.292;2023-04-16T08:44:33;42.38;;;15.45;;
74459;SDS011;62902;48.854;9.292;2023-04-16T08:47:01;45.75;;;17.40;;
74459;SDS011;62902;48.854;9.292;2023-04-16T08:49:28;40.45;;;14.23;;
74459;SDS011;62902;48.854;9.292;2023-04-16T08:51:55;43.70;;;16.92;;
74459;SDS011;62902;48.854;9.292;2023-04-16T08:57:04;42.83;;;15.98;;
74459;SDS011;62902;48.854;9.292;2023-04-16T08:59:32;39.53;;;15.98;;
74459;SDS011;62902;48.854;9.292;2023-04-16T09:01:59;42.38;;;15.55;;
74459;SDS011;62902;48.854;9.292;2023-04-16T09:04:26;42.13;;;16.88;;
74459;SDS011;62902;48.854;9.292;2023-04-16T09:06:54;44.92;;;16.58;;
74459;SDS011;62902;48.854;9.292;2023-04-16T09:09:22;42.17;;;16.63;;
74459;SDS011;62902;48.854;9.292;2023-04-16T09:11:49;41.83;;;15.55;;
74459;SDS011;62902;48.854;9.292;2023-04-16T09:14:17;47.53;;;16.08;;
74459;SDS011;62902;48.854;9.292;2023-04-16T09:16:45;43.58;;;16.70;;
74459;SDS011;62902;48.854;9.292;2023-04-16T09:21:40;45.25;;;15.77;;
74459;SDS011;62902;48.854;9.292;2023-04-16T09:24:08;46.88;;;17.10;;
74459;SDS011;62902;48.854;9.292;2023-04-16T09:26:35;36.38;;;14.85;;
74459;SDS011;62902;48.854;9.292;2023-04-16T09:29:01;46.67;;;16.05;;
74459;SDS011;62902;48.854;9.292;2023-04-16T09:31:28;45.60;;;17.33;;
74459;SDS011;62902;48.854;9.292;2023-04-16T09:34:05;45.42;;;16.40;;
74459;SDS011;62902;48.854;9.292;2023-04-16T09:36:33;38.75;;;16.27;;
74459;SDS011;62902;48.854;9.292;2023-04-16T09:39:02;41.75;;;15.98;;
74459;SDS011;62902;48.854;9.292;2023-04-16T09:41:30;40.03;;;15.73;;
74459;SDS011;62902;48.854;9.292;2023-04-16T09:43:58;42.50;;;15.45;;
74459;SDS011;62902;48.854;9.292;2023-04-16T09:46:30;40.95;;;15.65;;
74459;SDS011;62902;48.854;9.292;2023-04-16T09:48:57;45.03;;;17.08;;
74459;SDS011;62902;48.854;9.292;2023-04-16T09:51:23;45.63;;;16.30;;
74459;SDS011;62902;48.854;9.292;2023-04-16T09:53:52;42.30;;;16.48;;
74459;SDS011;62902;48.854;9.292;2023-04-16T09:56:22;39.53;;;15.13;;
74459;SDS011;62902;48.854;9.292;2023-04-16T09:58:49;44.63;;;15.93;;
74459;SDS011;62902;48.854;9.292;2023-04-16T10:01:16;44.30;;;16.58;;
74459;SDS011;62902;48.854;9.292;2023-04-16T10:03:47;38.53;;;15.50;;
74459;SDS011;62902;48.854;9.292;2023-04-16T10:06:16;43.13;;;17.55;;
74459;SDS011;62902;48.854;9.292;2023-04-16T10:08:51;40.58;;;16.05;;
74459;SDS011;62902;48.854;9.292;2023-04-16T10:11:19;37.05;;;15.35;;
74459;SDS011;62902;48.854;9.292;2023-04-16T10:13:46;42.17;;;15.32;;
74459;SDS011;62902;48.854;9.292;2023-04-16T10:16:12;43.05;;;15.30;;
74459;SDS011;62902;48.854;9.292;2023-04-16T10:18:40;47.58;;;16.48;;
74459;SDS011;62902;48.854;9.292;2023-04-16T10:21:07;43.70;;;15.27;;
74459;SDS011;62902;48.854;9.292;2023-04-16T10:23:40;40.78;;;14.88;;
74459;SDS011;62902;48.854;9.292;2023-04-16T10:26:07;44.03;;;14.70;;
74459;SDS011;62902;48.854;9.292;2023-04-16T10:28:34;44.72;;;15.32;;
74459;SDS011;62902;48.854;9.292;2023-04-16T10:31:01;45.72;;;14.68;;
74459;SDS011;62902;48.854;9.292;2023-04-16T10:33:30;50.05;;;16.45;;
74459;SDS011;62902;48.854;9.292;2023-04-16T10:36:08;48.38;;;16.77;;
74459;SDS011;62902;48.854;9.292;2023-04-16T10:38:37;48.40;;;16.45;;
74459;SDS011;62902;48.854;9.292;2023-04-16T10:41:05;47.97;;;15.32;;
74459;SDS011;62902;48.854;9.292;2023-04-16T10:43:33;47.33;;;16.48;;
74459;SDS011;62902;48.854;9.292;2023-04-16T10:46:18;42.10;;;13.82;;
74459;SDS011;62902;48.854;9.292;2023-04-16T10:48:51;48.85;;;17.50;;
74459;SDS011;62902;48.854;9.292;2023-04-16T10:51:23;40.08;;;15.10;;
74459;SDS011;62902;48.854;9.292;2023-04-16T10:53:50;44.75;;;13.88;;
74459;SDS011;62902;48.854;9.292;2023-04-16T10:56:23;42.80;;;14.38;;
74459;SDS011;62902;48.854;9.292;2023-04-16T10:58:52;43.53;;;14.30;;
74459;SDS011;62902;48.854;9.292;2023-04-16T11:01:25;42.47;;;14.02;;
74459;SDS011;62902;48.854;9.292;2023-04-16T11:03:57;36.47;;;14.63;;
74459;SDS011;62902;48.854;9.292;2023-04-16T11:06:25;30.67;;;12.90;;
74459;SDS011;62902;48.854;9.292;2023-04-16T11:08:53;34.72;;;14.00;;
74459;SDS011;62902;48.854;9.292;2023-04-16T11:11:21;39.90;;;16.05;;
74459;SDS011;62902;48.854;9.292;2023-04-16T11:13:47;37.20;;;12.75;;
74459;SDS011;62902;48.854;9.292;2023-04-16T11:16:15;32.00;;;12.88;;
74459;SDS011;62902;48.854;9.292;2023-04-16T11:18:43;34.05;;;13.07;;
74459;SDS011;62902;48.854;9.292;2023-04-16T11:21:16;38.50;;;12.98;;
74459;SDS011;62902;48.854;9.292;2023-04-16T11:23:50;28.98;;;10.77;;
74459;SDS011;62902;48.854;9.292;2023-04-16T11:26:27;38.72;;;11.27;;
74459;SDS011;62902;48.854;9.292;2023-04-16T11:28:55;33.47;;;11.32;;
74459;SDS011;62902;48.854;9.292;2023-04-16T11:31:22;25.48;;;9.52;;
74459;SDS011;62902;48.854;9.292;2023-04-16T11:33:49;29.30;;;10.57;;
74459;SDS011;62902;48.854;9.292;2023-04-16T11:36:16;25.17;;;9.50;;
74459;SDS011;62902;48.854;9.292;2023-04-16T11:38:42;28.05;;;8.90;;
74459;SDS011;62902;48.854;9.292;2023-04-16T11:41:09;29.08;;;9.88;;
74459;SDS011;62902;48.854;9.292;2023-04-16T11:43:36;30.75;;;9.18;;
74459;SDS011;62902;48.854;9.292;2023-04-16T11:46:04;26.75;;;9.70;;
74459;SDS011;62902;48.854;9.292;2023-04-16T11:48:50;25.13;;;9.25;;
74459;SDS011;62902;48.854;9.292;2023-04-16T11:51:18;27.13;;;9.40;;
74459;SDS011;62902;48.854;9.292;2023-04-16T11:53:45;23.83;;;8.68;;
74459;SDS011;62902;48.854;9.292;2023-04-16T11:56:12;20.67;;;8.43;;
74459;SDS011;62902;48.854;9.292;2023-04-16T11:58:39;27.63;;;9.98;;
74459;SDS011;62902;48.854;9.292;2023-04-16T12:01:08;20.98;;;7.95;;
74459;SDS011;62902;48.854;9.292;2023-04-16T12:03:41;26.75;;;9.68;;
74459;SDS011;62902;48.854;9.292;2023-04-16T12:06:12;21.35;;;9.02;;
74459;SDS011;62902;48.854;9.292;2023-04-16T12:08:38;22.00;;;9.07;;
74459;SDS011;62902;48.854;9.292;2023-04-16T12:11:05;24.83;;;9.88;;
74459;SDS011;62902;48.854;9.292;2023-04-16T12:13:31;21.95;;;9.10;;
74459;SDS011;62902;48.854;9.292;2023-04-16T12:16:15;21.70;;;9.25;;
74459;SDS011;62902;48.854;9.292;2023-04-16T12:18:57;30.90;;;10.73;;
74459;SDS011;62902;48.854;9.292;2023-04-16T12:21:24;24.63;;;9.60;;
74459;SDS011;62902;48.854;9.292;2023-04-16T12:23:52;25.38;;;9.18;;
74459;SDS011;62902;48.854;9.292;2023-04-16T12:26:18;26.85;;;9.88;;
74459;SDS011;62902;48.854;9.292;2023-04-16T12:28:45;25.48;;;9.57;;
74459;SDS011;62902;48.854;9.292;2023-04-16T12:31:11;21.75;;;8.93;;
74459;SDS011;62902;48.854;9.292;2023-04-16T12:33:38;20.13;;;8.23;;
74459;SDS011;62902;48.854;9.292;2023-04-16T12:36:17;22.25;;;9.30;;
74459;SDS011;62902;48.854;9.292;2023-04-16T12:38:44;22.48;;;9.48;;
74459;SDS011;62902;48.854;9.292;2023-04-16T12:41:11;24.73;;;9.90;;
74459;SDS011;62902;48.854;9.292;2023-04-16T12:43:38;20.23;;;7.78;;
74459;SDS011;62902;48.854;9.292;2023-04-16T12:46:04;20.75;;;7.70;;
74459;SDS011;62902;48.854;9.292;2023-04-16T12:48:31;22.77;;;9.65;;
74459;SDS011;62902;48.854;9.292;2023-04-16T12:50:58;21.98;;;9.10;;
74459;SDS011;62902;48.854;9.292;2023-04-16T12:53:25;19.65;;;8.25;;
74459;SDS011;62902;48.854;9.292;2023-04-16T12:55:52;22.42;;;9.95;;
74459;SDS011;62902;48.854;9.292;2023-04-16T12:58:18;20.10;;;8.75;;
74459;SDS011;62902;48.854;9.292;2023-04-16T13:00:45;18.77;;;8.80;;
74459;SDS011;62902;48.854;9.292;2023-04-16T13:03:11;20.13;;;8.57;;
74459;SDS011;62902;48.854;9.292;2023-04-16T13:05:39;18.40;;;8.25;;
74459;SDS011;62902;48.854;9.292;2023-04-16T13:08:05;16.38;;;7.18;;
74459;SDS011;62902;48.854;9.292;2023-04-16T13:10:32;20.73;;;8.32;;
74459;SDS011;62902;48.854;9.292;2023-04-16T13:13:00;24.08;;;9.57;;
74459;SDS011;62902;48.854;9.292;2023-04-16T13:15:26;24.00;;;10.18;;
74459;SDS011;62902;48.854;9.292;2023-04-16T13:17:53;23.90;;;9.27;;
74459;SDS011;62902;48.854;9.292;2023-04-16T13:20:19;17.95;;;8.48;;
74459;SDS011;62902;48.854;9.292;2023-04-16T13:22:49;18.35;;;8.13;;
74459;SDS011;62902;48.854;9.292;2023-04-16T13:25:16;20.92;;;8.82;;
74459;SDS011;62902;48.854;9.292;2023-04-16T13:27:42;61.50;;;27.60;;
74459;SDS011;62902;48.854;9.292;2023-04-16T13:30:09;22.50;;;9.95;;
74459;SDS011;62902;48.854;9.292;2023-04-16T13:32:36;58.67;;;28.17;;
74459;SDS011;62902;48.854;9.292;2023-04-16T13:35:03;50.30;;;21.70;;
74459;SDS011;62902;48.854;9.292;2023-04-16T13:37:29;267.98;;;138.13;;
74459;SDS011;62902;48.854;9.292;2023-04-16T13:39:56;82.25;;;40.13;;
74459;SDS011;62902;48.854;9.292;2023-04-16T13:42:22;49.85;;;22.42;;
74459;SDS011;62902;48.854;9.292;2023-04-16T13:44:49;26.60;;;10.63;;
74459;SDS011;62902;48.854;9.292;2023-04-16T13:47:19;19.77;;;9.23;;
74459;SDS011;62902;48.854;9.292;2023-04-16T13:49:46;29.20;;;11.27;;
74459;SDS011;62902;48.854;9.292;2023-04-16T13:52:12;24.13;;;8.88;;
74459;SDS011;62902;48.854;9.292;2023-04-16T13:54:39;23.65;;;8.98;;
74459;SDS011;62902;48.854;9.292;2023-04-16T13:57:17;24.75;;;9.65;;
74459;SDS011;62902;48.854;9.292;2023-04-16T13:59:44;28.20;;;11.23;;
74459;SDS011;62902;48.854;9.292;2023-04-16T14:02:11;23.27;;;10.02;;
74459;SDS011;62902;48.854;9.292;2023-04-16T14:04:38;19.77;;;8.70;;
74459;SDS011;62902;48.854;9.292;2023-04-16T14:07:04;25.35;;;10.10;;
74459;SDS011;62902;48.854;9.292;2023-04-16T14:09:31;27.15;;;11.32;;
74459;SDS011;62902;48.854;9.292;2023-04-16T14:11:57;26.27;;;10.73;;
74459;SDS011;62902;48.854;9.292;2023-04-16T14:14:24;27.05;;;10.93;;
74459;SDS011;62902;48.854;9.292;2023-04-16T14:16:53;25.02;;;11.02;;
74459;SDS011;62902;48.854;9.292;2023-04-16T14:19:19;130.07;;;63.08;;
74459;SDS011;62902;48.854;9.292;2023-04-16T14:21:46;324.75;;;165.88;;
74459;SDS011;62902;48.854;9.292;2023-04-16T14:24:13;387.55;;;200.50;;
74459;SDS011;62902;48.854;9.292;2023-04-16T14:26:39;267.55;;;136.32;;